sensor_id;sensor_type;location;lat;lon;timestamp;pressure;altitude;pressure_sealevel;temperature;humidity
15634;BME280;14654;48.898;8.308;2023-08-07T00:00:45;100227.28;;;13.70;100.00
15634;BME280;14654;48.898;8.308;2023-08-07T00:03:11;100236.81;;;13.69;100.00
15634;BME280;14654;48.898;8.308;2023-08-07T00:05:36;100237.72;;;13.68;100.00
15634;BME280;14654;48.898;8.308;2023-08-07T00:08:01;100234.19;;;13.71;100.00
15634;BME280;14654;48.898;8.308;2023-08-07T00:10:27;100237.56;;;13.76;100.00
15634;BME280;14654;48.898;8.308;2023-08-07T00:13:04;100239.34;;;13.72;100.00
15634;BME280;14654;48.898;8.308;2023-08-07T00:15:30;100245.47;;;13.70;100.00
15634;BME280;14654;48.898;8.308;2023-08-07T00:17:55;100239.41;;;13.71;100.00
15634;BME280;14654;48.898;8.308;2023-08-07T00:20:26;100241.16;;;13.69;100.00
15634;BME280;14654;48.898;8.308;2023-08-07T00:22:51;100245.44;;;13.71;100.00
15634;BME280;14654;48.898;8.308;2023-08-07T00:25:17;100242.81;;;13.73;100.00
15634;BME280;14654;48.898;8.308;2023-08-07T00:27:42;100244.53;;;13.72;100.00
15634;BME280;14654;48.898;8.308;2023-08-07T00:30:08;100246.25;;;13.74;100.00
15634;BME280;14654;48.898;8.308;2023-08-07T00:32:33;100248.84;;;13.74;100.00
15634;BME280;14654;48.898;8.308;2023-08-07T00:35:02;100248.03;;;13.73;100.00
15634;BME280;14654;48.898;8.308;2023-08-07T00:37:30;100250.56;;;13.75;100.00
15634;BME280;14654;48.898;8.308;2023-08-07T00:39:58;100250.50;;;13.78;100.00
15634;BME280;14654;48.898;8.308;2023-08-07T00:42:23;100252.16;;;13.80;100.00
15634;BME280;14654;48.898;8.308;2023-08-07T00:44:54;100257.41;;;13.79;100.00
15634;BME280;14654;48.898;8.308;2023-08-07T00:47:19;100257.41;;;13.79;100.00
15634;BME280;14654;48.898;8.308;2023-08-07T00:49:44;100251.34;;;13.78;100.00
15634;BME280;14654;48.898;8.308;2023-08-07T00:52:13;100260.91;;;13.78;100.00
15634;BME280;14654;48.898;8.308;2023-08-07T00:54:38;100266.94;;;13.78;100.00
15634;BME280;14654;48.898;8.308;2023-08-07T00:57:10;100260.91;;;13.78;100.00
15634;BME280;14654;48.898;8.308;2023-08-07T00:59:41;100260.09;;;13.76;100.00
15634;BME280;14654;48.898;8.308;2023-08-07T01:02:06;100270.50;;;13.76;100.00
15634;BME280;14654;48.898;8.308;2023-08-07T01:04:32;100263.56;;;13.75;100.00
15634;BME280;14654;48.898;8.308;2023-08-07T01:07:01;100273.13;;;13.74;100.00
15634;BME280;14654;48.898;8.308;2023-08-07T01:09:29;100260.16;;;13.72;100.00
15634;BME280;14654;48.898;8.308;2023-08-07T01:14:54;100266.22;;;13.73;100.00
15634;BME280;14654;48.898;8.308;2023-08-07T01:17:24;100267.06;;;13.75;100.00
15634;BME280;14654;48.898;8.308;2023-08-07T01:19:51;100268.75;;;13.76;100.00
15634;BME280;14654;48.898;8.308;2023-08-07T01:22:18;100267.06;;;13.75;100.00
15634;BME280;14654;48.898;8.308;2023-08-07T01:24:48;100267.00;;;13.77;100.00
15634;BME280;14654;48.898;8.308;2023-08-07T01:35:20;100285.28;;;13.74;100.00
15634;BME280;14654;48.898;8.308;2023-08-07T01:37:48;100282.66;;;13.74;100.00
15634;BME280;14654;48.898;8.308;2023-08-07T01:40:19;100284.44;;;13.73;100.00
15634;BME280;14654;48.898;8.308;2023-08-07T01:42:48;100282.66;;;13.74;100.00
15634;BME280;14654;48.898;8.308;2023-08-07T01:45:24;100283.56;;;13.72;100.00
15634;BME280;14654;48.898;8.308;2023-08-07T01:47:51;100282.00;;;13.65;100.00
15634;BME280;14654;48.898;8.308;2023-08-07T01:50:18;100284.69;;;13.61;100.00
15634;BME280;14654;48.898;8.308;2023-08-07T01:52:44;100296.00;;;13.58;100.00
15634;BME280;14654;48.898;8.308;2023-08-07T01:55:09;100296.88;;;13.59;100.00
15634;BME280;14654;48.898;8.308;2023-08-07T01:57:35;100298.59;;;13.60;100.00
15634;BME280;14654;48.898;8.308;2023-08-07T02:00:00;100293.50;;;13.53;100.00
15634;BME280;14654;48.898;8.308;2023-08-07T02:02:28;100293.59;;;13.49;100.00
15634;BME280;14654;48.898;8.308;2023-08-07T02:04:55;100289.34;;;13.45;100.00
15634;BME280;14654;48.898;8.308;2023-08-07T02:07:21;100288.59;;;13.38;100.00
15634;BME280;14654;48.898;8.308;2023-08-07T02:09:49;100287.88;;;13.31;100.00
15634;BME280;14654;48.898;8.308;2023-08-07T02:12:15;100292.28;;;13.26;100.00
15634;BME280;14654;48.898;8.308;2023-08-07T02:14:40;100295.88;;;13.20;100.00
15634;BME280;14654;48.898;8.308;2023-08-07T02:17:06;100299.44;;;13.15;100.00
15634;BME280;14654;48.898;8.308;2023-08-07T02:19:31;100297.91;;;13.04;100.00
15634;BME280;14654;48.898;8.308;2023-08-07T02:21:57;100300.63;;;13.00;100.00
15634;BME280;14654;48.898;8.308;2023-08-07T02:24:22;100301.50;;;12.97;100.00
15634;BME280;14654;48.898;8.308;2023-08-07T02:26:48;100299.78;;;12.98;100.00
15634;BME280;14654;48.898;8.308;2023-08-07T02:29:13;100301.69;;;12.88;100.00
15634;BME280;14654;48.898;8.308;2023-08-07T02:31:41;100303.44;;;12.86;100.00
15634;BME280;14654;48.898;8.308;2023-08-07T02:34:06;100301.81;;;12.80;100.00
15634;BME280;14654;48.898;8.308;2023-08-07T02:36:32;100296.63;;;12.78;100.00
15634;BME280;14654;48.898;8.308;2023-08-07T02:39:00;100294.97;;;12.77;100.00
15634;BME280;14654;48.898;8.308;2023-08-07T02:41:25;100293.38;;;12.69;100.00
15634;BME280;14654;48.898;8.308;2023-08-07T02:43:53;100293.38;;;12.67;100.00
15634;BME280;14654;48.898;8.308;2023-08-07T02:46:19;100293.53;;;12.59;100.00
15634;BME280;14654;48.898;8.308;2023-08-07T02:48:44;100294.47;;;12.55;100.00
15634;BME280;14654;48.898;8.308;2023-08-07T02:51:09;100294.53;;;12.50;100.00
15634;BME280;14654;48.898;8.308;2023-08-07T02:53:35;100298.94;;;12.47;100.00
15634;BME280;14654;48.898;8.308;2023-08-07T02:56:00;100300.72;;;12.43;100.00
15634;BME280;14654;48.898;8.308;2023-08-07T02:58:26;100300.81;;;12.39;100.00
15634;BME280;14654;48.898;8.308;2023-08-07T03:01:11;100293.06;;;12.35;100.00
15634;BME280;14654;48.898;8.308;2023-08-07T03:03:37;100297.50;;;12.29;100.00
15634;BME280;14654;48.898;8.308;2023-08-07T03:06:03;100302.72;;;12.26;100.00
15634;BME280;14654;48.898;8.308;2023-08-07T03:08:28;100290.72;;;12.20;100.00
15634;BME280;14654;48.898;8.308;2023-08-07T03:10:55;100296.78;;;12.19;100.00
15634;BME280;14654;48.898;8.308;2023-08-07T03:13:26;100297.56;;;12.24;100.00
15634;BME280;14654;48.898;8.308;2023-08-07T03:16:02;100293.38;;;12.15;100.00
15634;BME280;14654;48.898;8.308;2023-08-07T03:18:30;100302.84;;;12.18;100.00
15634;BME280;14654;48.898;8.308;2023-08-07T03:21:04;100296.03;;;12.11;100.00
15634;BME280;14654;48.898;8.308;2023-08-07T03:23:30;100300.41;;;12.07;100.00
15634;BME280;14654;48.898;8.308;2023-08-07T03:26:06;100289.06;;;12.14;100.00
15634;BME280;14654;48.898;8.308;2023-08-07T03:28:32;100296.84;;;12.13;100.00
15634;BME280;14654;48.898;8.308;2023-08-07T03:30:58;100296.97;;;12.05;100.00
15634;BME280;14654;48.898;8.308;2023-08-07T03:33:23;100295.97;;;12.15;100.00
15634;BME280;14654;48.898;8.308;2023-08-07T03:35:49;100300.44;;;12.04;100.00
15634;BME280;14654;48.898;8.308;2023-08-07T03:38:17;100299.59;;;12.03;100.00
15634;BME280;14654;48.898;8.308;2023-08-07T03:40:42;100293.50;;;12.08;100.00
15634;BME280;14654;48.898;8.308;2023-08-07T03:43:07;100299.56;;;12.07;100.00
15634;BME280;14654;48.898;8.308;2023-08-07T03:45:38;100299.59;;;12.03;100.00
15634;BME280;14654;48.898;8.308;2023-08-07T03:48:04;100296.94;;;12.10;100.00
15634;BME280;14654;48.898;8.308;2023-08-07T03:50:29;100305.56;;;12.10;100.00
15634;BME280;14654;48.898;8.308;2023-08-07T03:52:55;100302.13;;;12.08;100.00
15634;BME280;14654;48.898;8.308;2023-08-07T03:55:24;100304.69;;;12.11;100.00
15634;BME280;14654;48.898;8.308;2023-08-07T03:57:49;100304.53;;;12.20;100.00
15634;BME280;14654;48.898;8.308;2023-08-07T04:00:14;100308.88;;;12.20;100.00
15634;BME280;14654;48.898;8.308;2023-08-07T04:02:40;100312.28;;;12.24;100.00
15634;BME280;14654;48.898;8.308;2023-08-07T04:05:06;100307.06;;;12.24;100.00
15634;BME280;14654;48.898;8.308;2023-08-07T04:07:31;100303.53;;;12.29;100.00
15634;BME280;14654;48.898;8.308;2023-08-07T04:09:56;100300.94;;;12.31;100.00
15634;BME280;14654;48.898;8.308;2023-08-07T04:12:22;100306.13;;;12.31;100.00
15634;BME280;14654;48.898;8.308;2023-08-07T04:14:47;100303.41;;;12.37;100.00
15634;BME280;14654;48.898;8.308;2023-08-07T04:17:13;100297.34;;;12.38;100.00
15634;BME280;14654;48.898;8.308;2023-08-07T04:19:38;100306.00;;;12.39;100.00
15634;BME280;14654;48.898;8.308;2023-08-07T04:22:04;100306.78;;;12.42;100.00
15634;BME280;14654;48.898;8.308;2023-08-07T04:24:29;100305.91;;;12.43;100.00
15634;BME280;14654;48.898;8.308;2023-08-07T04:26:54;100308.47;;;12.45;100.00
15634;BME280;14654;48.898;8.308;2023-08-07T04:29:20;100308.47;;;12.46;100.00
15634;BME280;14654;48.898;8.308;2023-08-07T04:31:45;100311.88;;;12.48;100.00
15634;BME280;14654;48.898;8.308;2023-08-07T04:34:13;100310.94;;;12.54;100.00
15634;BME280;14654;48.898;8.308;2023-08-07T04:36:39;100310.84;;;12.59;100.00
15634;BME280;14654;48.898;8.308;2023-08-07T04:39:04;100309.13;;;12.58;100.00
15634;BME280;14654;48.898;8.308;2023-08-07T04:41:29;100302.19;;;12.60;100.00
15634;BME280;14654;48.898;8.308;2023-08-07T04:43:55;100310.69;;;12.68;100.00
15634;BME280;14654;48.898;8.308;2023-08-07T04:46:20;100308.97;;;12.69;100.00
15634;BME280;14654;48.898;8.308;2023-08-07T04:48:51;100314.13;;;12.70;100.00
15634;BME280;14654;48.898;8.308;2023-08-07T04:51:16;100309.75;;;12.72;100.00
15634;BME280;14654;48.898;8.308;2023-08-07T04:53:41;100314.81;;;12.78;100.00
15634;BME280;14654;48.898;8.308;2023-08-07T04:56:07;100322.47;;;12.86;100.00
15634;BME280;14654;48.898;8.308;2023-08-07T04:58:35;100325.13;;;12.85;100.00
15634;BME280;14654;48.898;8.308;2023-08-07T05:01:00;100327.66;;;12.86;100.00
15634;BME280;14654;48.898;8.308;2023-08-07T05:03:29;100331.94;;;12.90;100.00
15634;BME280;14654;48.898;8.308;2023-08-07T05:05:59;100330.13;;;12.94;100.00
15634;BME280;14654;48.898;8.308;2023-08-07T05:08:25;100337.03;;;12.96;100.00
15634;BME280;14654;48.898;8.308;2023-08-07T05:10:50;100340.41;;;13.00;100.00
15634;BME280;14654;48.898;8.308;2023-08-07T05:13:16;100336.91;;;13.04;100.00
15634;BME280;14654;48.898;8.308;2023-08-07T05:15:41;100335.97;;;13.07;100.00
15634;BME280;14654;48.898;8.308;2023-08-07T05:18:07;100335.88;;;13.11;100.00
15634;BME280;14654;48.898;8.308;2023-08-07T05:20:35;100336.72;;;13.14;100.00
15634;BME280;14654;48.898;8.308;2023-08-07T05:23:00;100334.94;;;13.16;100.00
15634;BME280;14654;48.898;8.308;2023-08-07T05:25:26;100339.16;;;13.21;100.00
15634;BME280;14654;48.898;8.308;2023-08-07T05:27:51;100346.03;;;13.24;100.00
15634;BME280;14654;48.898;8.308;2023-08-07T05:30:17;100345.97;;;13.27;100.00
15634;BME280;14654;48.898;8.308;2023-08-07T05:32:42;100349.41;;;13.29;100.00
15634;BME280;14654;48.898;8.308;2023-08-07T05:35:08;100351.03;;;13.35;100.00
15634;BME280;14654;48.898;8.308;2023-08-07T05:37:34;100349.19;;;13.41;100.00
15634;BME280;14654;48.898;8.308;2023-08-07T05:39:59;100352.47;;;13.51;100.00
15634;BME280;14654;48.898;8.308;2023-08-07T05:42:25;100349.78;;;13.57;100.00
15634;BME280;14654;48.898;8.308;2023-08-07T05:44:51;100358.31;;;13.63;100.00
15634;BME280;14654;48.898;8.308;2023-08-07T05:47:16;100361.69;;;13.68;100.00
15634;BME280;14654;48.898;8.308;2023-08-07T05:49:44;100352.88;;;13.75;100.00
15634;BME280;14654;48.898;8.308;2023-08-07T05:52:09;100362.34;;;13.78;100.00
15634;BME280;14654;48.898;8.308;2023-08-07T05:54:35;100370.94;;;13.83;100.00
15634;BME280;14654;48.898;8.308;2023-08-07T05:57:03;100365.56;;;13.91;100.00
15634;BME280;14654;48.898;8.308;2023-08-07T05:59:29;100368.06;;;13.94;100.00
15634;BME280;14654;48.898;8.308;2023-08-07T06:01:54;100367.91;;;14.01;100.00
15634;BME280;14654;48.898;8.308;2023-08-07T06:04:21;100376.41;;;14.10;100.00
15634;BME280;14654;48.898;8.308;2023-08-07T06:06:47;100365.00;;;14.15;100.00
15634;BME280;14654;48.898;8.308;2023-08-07T06:09:12;100370.25;;;14.14;100.00
15634;BME280;14654;48.898;8.308;2023-08-07T06:11:39;100372.16;;;14.06;100.00
15634;BME280;14654;48.898;8.308;2023-08-07T06:14:05;100369.28;;;14.18;100.00
15634;BME280;14654;48.898;8.308;2023-08-07T06:16:33;100372.41;;;14.70;100.00
15634;BME280;14654;48.898;8.308;2023-08-07T06:18:58;100379.19;;;15.44;100.00
15634;BME280;14654;48.898;8.308;2023-08-07T06:21:29;100372.53;;;16.25;100.00
15634;BME280;14654;48.898;8.308;2023-08-07T06:23:54;100369.88;;;16.26;98.58
15634;BME280;14654;48.898;8.308;2023-08-07T06:26:19;100375.44;;;16.42;97.63
15634;BME280;14654;48.898;8.308;2023-08-07T06:28:48;100369.44;;;16.12;97.72
15634;BME280;14654;48.898;8.308;2023-08-07T06:31:15;100382.00;;;15.99;97.87
15634;BME280;14654;48.898;8.308;2023-08-07T06:33:40;100384.72;;;15.96;98.33
15634;BME280;14654;48.898;8.308;2023-08-07T06:36:06;100377.44;;;15.76;99.35
15634;BME280;14654;48.898;8.308;2023-08-07T06:38:35;100385.63;;;15.95;99.65
15634;BME280;14654;48.898;8.308;2023-08-07T06:41:01;100379.75;;;16.45;98.59
15634;BME280;14654;48.898;8.308;2023-08-07T06:43:29;100370.56;;;17.12;96.18
15634;BME280;14654;48.898;8.308;2023-08-07T06:45:58;100376.16;;;17.52;94.11
15634;BME280;14654;48.898;8.308;2023-08-07T06:48:24;100380.72;;;17.47;91.62
15634;BME280;14654;48.898;8.308;2023-08-07T06:50:50;100377.44;;;17.40;92.44
15634;BME280;14654;48.898;8.308;2023-08-07T06:53:15;100376.78;;;17.35;92.48
15634;BME280;14654;48.898;8.308;2023-08-07T06:55:44;100383.25;;;16.98;93.66
15634;BME280;14654;48.898;8.308;2023-08-07T06:58:21;100385.97;;;16.95;94.24
15634;BME280;14654;48.898;8.308;2023-08-07T07:00:47;100384.16;;;17.24;93.32
15634;BME280;14654;48.898;8.308;2023-08-07T07:03:13;100387.59;;;17.24;92.78
15634;BME280;14654;48.898;8.308;2023-08-07T07:05:41;100393.56;;;17.53;91.41
15634;BME280;14654;48.898;8.308;2023-08-07T07:08:08;100388.16;;;18.05;90.07
15634;BME280;14654;48.898;8.308;2023-08-07T07:10:33;100381.34;;;18.68;88.65
15634;BME280;14654;48.898;8.308;2023-08-07T07:12:58;100388.38;;;18.88;87.74
15634;BME280;14654;48.898;8.308;2023-08-07T07:15:24;100394.13;;;18.98;87.05
15634;BME280;14654;48.898;8.308;2023-08-07T07:17:49;100389.19;;;19.11;85.90
15634;BME280;14654;48.898;8.308;2023-08-07T07:20:15;100396.47;;;19.64;83.78
15634;BME280;14654;48.898;8.308;2023-08-07T07:22:46;100399.91;;;19.86;81.77
15634;BME280;14654;48.898;8.308;2023-08-07T07:25:11;100394.16;;;19.97;80.44
15634;BME280;14654;48.898;8.308;2023-08-07T07:27:39;100400.81;;;19.85;80.29
15634;BME280;14654;48.898;8.308;2023-08-07T07:30:06;100397.75;;;19.75;80.05
15634;BME280;14654;48.898;8.308;2023-08-07T07:32:32;100398.53;;;19.58;80.84
15634;BME280;14654;48.898;8.308;2023-08-07T07:34:57;100403.94;;;19.34;81.24
15634;BME280;14654;48.898;8.308;2023-08-07T07:37:23;100409.25;;;19.12;82.12
15634;BME280;14654;48.898;8.308;2023-08-07T07:39:48;100408.66;;;19.05;82.71
15634;BME280;14654;48.898;8.308;2023-08-07T07:42:13;100410.91;;;18.92;82.23
15634;BME280;14654;48.898;8.308;2023-08-07T07:44:39;100416.53;;;18.83;82.81
15634;BME280;14654;48.898;8.308;2023-08-07T07:47:08;100417.56;;;18.79;83.03
15634;BME280;14654;48.898;8.308;2023-08-07T07:49:33;100418.69;;;18.73;82.47
15634;BME280;14654;48.898;8.308;2023-08-07T07:52:01;100418.75;;;18.71;81.85
15634;BME280;14654;48.898;8.308;2023-08-07T07:54:28;100419.88;;;18.66;81.02
15634;BME280;14654;48.898;8.308;2023-08-07T07:56:54;100422.28;;;18.70;78.71
15634;BME280;14654;48.898;8.308;2023-08-07T07:59:19;100421.69;;;18.64;78.50
15634;BME280;14654;48.898;8.308;2023-08-07T08:01:44;100419.19;;;18.61;78.97
15634;BME280;14654;48.898;8.308;2023-08-07T08:04:10;100425.09;;;18.66;77.30
15634;BME280;14654;48.898;8.308;2023-08-07T08:06:40;100413.44;;;18.73;77.60
15634;BME280;14654;48.898;8.308;2023-08-07T08:09:05;100429.66;;;18.83;77.52
15634;BME280;14654;48.898;8.308;2023-08-07T08:11:34;100435.88;;;19.02;76.39
15634;BME280;14654;48.898;8.308;2023-08-07T08:13:59;100443.22;;;19.15;75.56
15634;BME280;14654;48.898;8.308;2023-08-07T08:16:24;100444.34;;;19.09;75.51
15634;BME280;14654;48.898;8.308;2023-08-07T08:18:53;100451.28;;;19.10;75.39
15634;BME280;14654;48.898;8.308;2023-08-07T08:21:21;100450.31;;;19.13;75.85
15634;BME280;14654;48.898;8.308;2023-08-07T08:23:46;100454.06;;;19.28;75.95
15634;BME280;14654;48.898;8.308;2023-08-07T08:26:12;100448.59;;;19.32;74.80
15634;BME280;14654;48.898;8.308;2023-08-07T08:28:42;100457.44;;;19.30;74.28
15634;BME280;14654;48.898;8.308;2023-08-07T08:31:11;100454.56;;;19.36;74.65
15634;BME280;14654;48.898;8.308;2023-08-07T08:33:36;100446.28;;;19.45;74.05
15634;BME280;14654;48.898;8.308;2023-08-07T08:36:04;100454.69;;;19.54;73.99
15634;BME280;14654;48.898;8.308;2023-08-07T08:38:29;100454.56;;;19.57;73.97
15634;BME280;14654;48.898;8.308;2023-08-07T08:41:01;100446.19;;;19.68;73.18
15634;BME280;14654;48.898;8.308;2023-08-07T08:43:29;100444.34;;;19.70;73.52
15634;BME280;14654;48.898;8.308;2023-08-07T08:46:00;100443.06;;;19.59;73.53
15634;BME280;14654;48.898;8.308;2023-08-07T08:48:27;100445.91;;;19.55;74.05
15634;BME280;14654;48.898;8.308;2023-08-07T08:50:56;100438.41;;;19.66;73.96
15634;BME280;14654;48.898;8.308;2023-08-07T08:53:25;100443.44;;;19.71;73.48
15634;BME280;14654;48.898;8.308;2023-08-07T08:55:51;100441.38;;;19.98;72.58
15634;BME280;14654;48.898;8.308;2023-08-07T08:58:17;100452.81;;;20.16;72.63
15634;BME280;14654;48.898;8.308;2023-08-07T09:00:43;100450.59;;;20.26;71.08
15634;BME280;14654;48.898;8.308;2023-08-07T09:03:08;100460.97;;;20.29;71.49
15634;BME280;14654;48.898;8.308;2023-08-07T09:05:36;100454.84;;;20.29;71.31
15634;BME280;14654;48.898;8.308;2023-08-07T09:08:02;100457.47;;;20.29;71.91
15634;BME280;14654;48.898;8.308;2023-08-07T09:10:28;100446.41;;;20.41;71.34
15634;BME280;14654;48.898;8.308;2023-08-07T09:13:01;100448.09;;;20.42;70.33
15634;BME280;14654;48.898;8.308;2023-08-07T09:15:30;100457.75;;;20.41;70.47
15634;BME280;14654;48.898;8.308;2023-08-07T09:17:56;100442.81;;;20.42;71.08
15634;BME280;14654;48.898;8.308;2023-08-07T09:20:23;100445.50;;;20.60;71.77
15634;BME280;14654;48.898;8.308;2023-08-07T09:22:48;100446.88;;;20.86;72.32
15634;BME280;14654;48.898;8.308;2023-08-07T09:25:14;100447.06;;;21.00;70.60
15634;BME280;14654;48.898;8.308;2023-08-07T09:27:39;100448.47;;;21.08;70.54
15634;BME280;14654;48.898;8.308;2023-08-07T09:30:08;100453.69;;;21.25;69.33
15634;BME280;14654;48.898;8.308;2023-08-07T09:32:35;100446.72;;;21.42;69.02
15634;BME280;14654;48.898;8.308;2023-08-07T09:35:02;100445.47;;;21.49;68.55
15634;BME280;14654;48.898;8.308;2023-08-07T09:37:29;100447.72;;;21.39;68.30
15634;BME280;14654;48.898;8.308;2023-08-07T09:39:54;100446.44;;;21.30;68.00
15634;BME280;14654;48.898;8.308;2023-08-07T09:42:20;100451.13;;;21.41;68.01
15634;BME280;14654;48.898;8.308;2023-08-07T09:44:46;100448.19;;;21.47;68.21
15634;BME280;14654;48.898;8.308;2023-08-07T09:47:15;100449.31;;;21.59;67.90
15634;BME280;14654;48.898;8.308;2023-08-07T09:49:45;100452.25;;;21.71;67.59
15634;BME280;14654;48.898;8.308;2023-08-07T09:52:13;100450.50;;;21.87;66.21
15634;BME280;14654;48.898;8.308;2023-08-07T09:54:39;100453.16;;;21.87;67.12
15634;BME280;14654;48.898;8.308;2023-08-07T09:57:05;100455.72;;;21.89;67.22
15634;BME280;14654;48.898;8.308;2023-08-07T09:59:33;100456.22;;;21.96;67.54
15634;BME280;14654;48.898;8.308;2023-08-07T10:02:03;100453.25;;;22.02;67.86
15634;BME280;14654;48.898;8.308;2023-08-07T10:04:29;100458.34;;;22.05;68.31
15634;BME280;14654;48.898;8.308;2023-08-07T10:06:56;100448.16;;;21.99;67.74
15634;BME280;14654;48.898;8.308;2023-08-07T10:09:21;100452.50;;;22.00;68.09
15634;BME280;14654;48.898;8.308;2023-08-07T10:11:51;100447.13;;;22.01;67.68
15634;BME280;14654;48.898;8.308;2023-08-07T10:14:17;100446.47;;;21.98;68.08
15634;BME280;14654;48.898;8.308;2023-08-07T10:16:43;100438.72;;;21.95;68.42
15634;BME280;14654;48.898;8.308;2023-08-07T10:19:09;100437.94;;;21.92;68.88
15634;BME280;14654;48.898;8.308;2023-08-07T10:21:41;100436.25;;;21.91;67.55
15634;BME280;14654;48.898;8.308;2023-08-07T10:24:09;100436.19;;;22.09;67.67
15634;BME280;14654;48.898;8.308;2023-08-07T10:26:41;100441.63;;;22.38;66.54
15634;BME280;14654;48.898;8.308;2023-08-07T10:29:10;100442.31;;;22.26;65.95
15634;BME280;14654;48.898;8.308;2023-08-07T10:31:39;100439.69;;;22.42;66.34
15634;BME280;14654;48.898;8.308;2023-08-07T10:34:07;100431.94;;;22.38;66.43
15634;BME280;14654;48.898;8.308;2023-08-07T10:36:33;100431.41;;;22.32;66.78
15634;BME280;14654;48.898;8.308;2023-08-07T10:39:08;100432.53;;;22.28;67.03
15634;BME280;14654;48.898;8.308;2023-08-07T10:41:41;100437.94;;;22.41;66.71
15634;BME280;14654;48.898;8.308;2023-08-07T10:44:26;100440.56;;;22.42;65.97
15634;BME280;14654;48.898;8.308;2023-08-07T10:46:56;100442.22;;;22.27;66.16
15634;BME280;14654;48.898;8.308;2023-08-07T10:49:38;100434.63;;;21.89;64.95
15634;BME280;14654;48.898;8.308;2023-08-07T10:52:14;100438.34;;;21.69;66.20
15634;BME280;14654;48.898;8.308;2023-08-07T10:54:48;100439.19;;;21.69;66.55
15634;BME280;14654;48.898;8.308;2023-08-07T10:57:16;100438.63;;;21.80;67.00
15634;BME280;14654;48.898;8.308;2023-08-07T11:00:02;100438.03;;;21.91;66.45
15634;BME280;14654;48.898;8.308;2023-08-07T11:02:31;100449.94;;;21.98;66.25
15634;BME280;14654;48.898;8.308;2023-08-07T11:04:57;100442.44;;;21.90;66.12
15634;BME280;14654;48.898;8.308;2023-08-07T11:07:24;100442.84;;;21.83;65.97
15634;BME280;14654;48.898;8.308;2023-08-07T11:09:50;100440.91;;;21.53;65.98
15634;BME280;14654;48.898;8.308;2023-08-07T11:12:16;100441.28;;;21.45;66.49
15634;BME280;14654;48.898;8.308;2023-08-07T11:14:41;100447.63;;;21.41;66.33
15634;BME280;14654;48.898;8.308;2023-08-07T11:17:06;100437.88;;;21.43;65.94
15634;BME280;14654;48.898;8.308;2023-08-07T11:19:32;100445.19;;;21.38;66.72
15634;BME280;14654;48.898;8.308;2023-08-07T11:21:58;100442.97;;;21.12;67.86
15634;BME280;14654;48.898;8.308;2023-08-07T11:24:26;100444.13;;;21.24;67.38
15634;BME280;14654;48.898;8.308;2023-08-07T11:26:52;100443.59;;;21.17;67.05
15634;BME280;14654;48.898;8.308;2023-08-07T11:29:18;100445.34;;;20.99;67.66
15634;BME280;14654;48.898;8.308;2023-08-07T11:31:44;100454.25;;;20.79;67.73
15634;BME280;14654;48.898;8.308;2023-08-07T11:34:10;100452.47;;;20.97;68.03
15634;BME280;14654;48.898;8.308;2023-08-07T11:36:43;100451.94;;;21.26;68.42
15634;BME280;14654;48.898;8.308;2023-08-07T11:39:08;100444.47;;;21.52;67.33
15634;BME280;14654;48.898;8.308;2023-08-07T11:41:34;100445.31;;;21.70;66.57
15634;BME280;14654;48.898;8.308;2023-08-07T11:43:59;100444.56;;;21.84;65.92
15634;BME280;14654;48.898;8.308;2023-08-07T11:46:25;100449.50;;;21.90;65.66
15634;BME280;14654;48.898;8.308;2023-08-07T11:48:51;100457.25;;;21.93;65.65
15634;BME280;14654;48.898;8.308;2023-08-07T11:51:17;100455.88;;;22.02;65.71
15634;BME280;14654;48.898;8.308;2023-08-07T11:53:42;100443.22;;;22.08;65.73
15634;BME280;14654;48.898;8.308;2023-08-07T11:56:09;100455.66;;;22.22;66.40
15634;BME280;14654;48.898;8.308;2023-08-07T11:58:48;100446.22;;;22.02;64.97
15634;BME280;14654;48.898;8.308;2023-08-07T12:03:55;100448.00;;;22.34;66.00
15634;BME280;14654;48.898;8.308;2023-08-07T12:06:22;100451.34;;;22.53;66.03
15634;BME280;14654;48.898;8.308;2023-08-07T12:08:55;100438.66;;;22.60;65.85
15634;BME280;14654;48.898;8.308;2023-08-07T12:11:21;100443.31;;;22.55;64.26
15634;BME280;14654;48.898;8.308;2023-08-07T12:13:47;100447.88;;;22.53;65.19
15634;BME280;14654;48.898;8.308;2023-08-07T12:16:14;100451.84;;;22.60;64.41
15634;BME280;14654;48.898;8.308;2023-08-07T12:18:51;100456.41;;;22.73;63.64
15634;BME280;14654;48.898;8.308;2023-08-07T12:21:18;100439.31;;;22.64;63.37
15634;BME280;14654;48.898;8.308;2023-08-07T12:23:55;100437.38;;;22.67;64.66
15634;BME280;14654;48.898;8.308;2023-08-07T12:26:20;100429.84;;;22.76;63.99
15634;BME280;14654;48.898;8.308;2023-08-07T12:28:45;100427.22;;;22.76;64.75
15634;BME280;14654;48.898;8.308;2023-08-07T12:31:14;100425.88;;;22.68;65.60
15634;BME280;14654;48.898;8.308;2023-08-07T12:33:40;100429.34;;;22.69;64.80
15634;BME280;14654;48.898;8.308;2023-08-07T12:36:05;100430.72;;;22.76;64.66
15634;BME280;14654;48.898;8.308;2023-08-07T12:38:31;100437.75;;;22.76;64.70
15634;BME280;14654;48.898;8.308;2023-08-07T12:40:56;100427.72;;;22.82;64.75
15634;BME280;14654;48.898;8.308;2023-08-07T12:43:22;100435.34;;;22.87;64.10
15634;BME280;14654;48.898;8.308;2023-08-07T12:45:47;100433.41;;;22.91;64.09
15634;BME280;14654;48.898;8.308;2023-08-07T12:48:13;100431.25;;;22.97;64.29
15634;BME280;14654;48.898;8.308;2023-08-07T12:50:39;100437.16;;;22.87;64.33
15634;BME280;14654;48.898;8.308;2023-08-07T12:53:05;100428.63;;;23.12;64.59
15634;BME280;14654;48.898;8.308;2023-08-07T12:55:31;100436.22;;;23.33;64.49
15634;BME280;14654;48.898;8.308;2023-08-07T12:57:56;100438.50;;;23.39;64.62